sensor_id;sensor_type;location;lat;lon;timestamp;temperature;humidity
30399;DHT22;17195;50.838;7.214;2023-07-29T00:01:01;18.90;99.90
30399;DHT22;17195;50.838;7.214;2023-07-29T00:03:26;18.90;99.90
30399;DHT22;17195;50.838;7.214;2023-07-29T00:05:52;19.00;99.90
30399;DHT22;17195;50.838;7.214;2023-07-29T00:08:18;19.00;99.90
30399;DHT22;17195;50.838;7.214;2023-07-29T00:10:43;18.90;99.90
30399;DHT22;17195;50.838;7.214;2023-07-29T00:13:09;19.00;99.90
30399;DHT22;17195;50.838;7.214;2023-07-29T00:15:34;19.00;99.90
30399;DHT22;17195;50.838;7.214;2023-07-29T00:18:00;19.00;99.90
30399;DHT22;17195;50.838;7.214;2023-07-29T00:20:26;19.00;99.90
30399;DHT22;17195;50.838;7.214;2023-07-29T00:22:51;18.90;99.90
30399;DHT22;17195;50.838;7.214;2023-07-29T00:25:19;19.00;99.90
30399;DHT22;17195;50.838;7.214;2023-07-29T00:27:45;18.90;99.90
30399;DHT22;17195;50.838;7.214;2023-07-29T00:30:11;18.90;99.90
30399;DHT22;17195;50.838;7.214;2023-07-29T00:32:37;18.90;99.90
30399;DHT22;17195;50.838;7.214;2023-07-29T00:35:02;18.90;99.90
30399;DHT22;17195;50.838;7.214;2023-07-29T00:37:29;18.90;99.90
30399;DHT22;17195;50.838;7.214;2023-07-29T00:39:55;18.90;99.90
30399;DHT22;17195;50.838;7.214;2023-07-29T00:42:21;18.90;99.90
30399;DHT22;17195;50.838;7.214;2023-07-29T00:44:46;18.90;99.90
30399;DHT22;17195;50.838;7.214;2023-07-29T00:47:12;18.90;99.90
30399;DHT22;17195;50.838;7.214;2023-07-29T00:49:40;18.90;99.90
30399;DHT22;17195;50.838;7.214;2023-07-29T00:52:06;19.00;99.90
30399;DHT22;17195;50.838;7.214;2023-07-29T00:54:31;19.00;99.90
30399;DHT22;17195;50.838;7.214;2023-07-29T00:56:57;18.90;99.90
30399;DHT22;17195;50.838;7.214;2023-07-29T00:59:23;19.00;99.90
30399;DHT22;17195;50.838;7.214;2023-07-29T01:01:48;19.00;99.90
30399;DHT22;17195;50.838;7.214;2023-07-29T01:04:14;19.00;99.90
30399;DHT22;17195;50.838;7.214;2023-07-29T01:06:49;19.00;99.90
30399;DHT22;17195;50.838;7.214;2023-07-29T01:09:46;19.00;99.90
30399;DHT22;17195;50.838;7.214;2023-07-29T01:12:37;19.00;99.90
30399;DHT22;17195;50.838;7.214;2023-07-29T01:15:19;19.00;99.90
30399;DHT22;17195;50.838;7.214;2023-07-29T01:17:49;19.00;99.90
30399;DHT22;17195;50.838;7.214;2023-07-29T01:20:19;19.00;99.90
30399;DHT22;17195;50.838;7.214;2023-07-29T01:22:46;19.00;99.90
30399;DHT22;17195;50.838;7.214;2023-07-29T01:25:13;19.00;99.90
30399;DHT22;17195;50.838;7.214;2023-07-29T01:27:40;19.00;99.90
30399;DHT22;17195;50.838;7.214;2023-07-29T01:30:06;19.00;99.90
30399;DHT22;17195;50.838;7.214;2023-07-29T01:35:24;19.10;99.90
30399;DHT22;17195;50.838;7.214;2023-07-29T01:38:05;19.10;99.90
30399;DHT22;17195;50.838;7.214;2023-07-29T01:40:33;19.20;99.90
30399;DHT22;17195;50.838;7.214;2023-07-29T01:42:59;19.20;99.90
30399;DHT22;17195;50.838;7.214;2023-07-29T01:45:25;19.20;99.90
30399;DHT22;17195;50.838;7.214;2023-07-29T01:47:51;19.20;99.90
30399;DHT22;17195;50.838;7.214;2023-07-29T01:50:16;19.20;99.90
30399;DHT22;17195;50.838;7.214;2023-07-29T01:52:42;19.20;99.90
30399;DHT22;17195;50.838;7.214;2023-07-29T01:55:08;19.20;99.90
30399;DHT22;17195;50.838;7.214;2023-07-29T01:57:33;19.20;99.90
30399;DHT22;17195;50.838;7.214;2023-07-29T01:59:59;19.20;99.90
30399;DHT22;17195;50.838;7.214;2023-07-29T02:02:24;19.20;99.90
30399;DHT22;17195;50.838;7.214;2023-07-29T02:04:50;19.20;99.90
30399;DHT22;17195;50.838;7.214;2023-07-29T02:07:18;19.20;99.90
30399;DHT22;17195;50.838;7.214;2023-07-29T02:09:44;19.20;99.90
30399;DHT22;17195;50.838;7.214;2023-07-29T02:12:10;19.20;99.90
30399;DHT22;17195;50.838;7.214;2023-07-29T02:14:35;19.20;99.90
30399;DHT22;17195;50.838;7.214;2023-07-29T02:17:01;19.20;99.90
30399;DHT22;17195;50.838;7.214;2023-07-29T02:19:26;19.30;99.90
30399;DHT22;17195;50.838;7.214;2023-07-29T02:21:52;19.30;99.90
30399;DHT22;17195;50.838;7.214;2023-07-29T02:24:17;19.30;99.90
30399;DHT22;17195;50.838;7.214;2023-07-29T02:26:43;19.30;99.90
30399;DHT22;17195;50.838;7.214;2023-07-29T02:29:09;19.30;99.90
30399;DHT22;17195;50.838;7.214;2023-07-29T02:31:34;19.30;99.90
30399;DHT22;17195;50.838;7.214;2023-07-29T02:34:02;19.30;99.90
30399;DHT22;17195;50.838;7.214;2023-07-29T02:36:27;19.30;99.90
30399;DHT22;17195;50.838;7.214;2023-07-29T02:38:53;19.30;99.90
30399;DHT22;17195;50.838;7.214;2023-07-29T02:41:18;19.20;99.90
30399;DHT22;17195;50.838;7.214;2023-07-29T02:43:48;19.10;99.90
30399;DHT22;17195;50.838;7.214;2023-07-29T02:46:14;19.00;99.90
30399;DHT22;17195;50.838;7.214;2023-07-29T02:48:40;18.90;99.90
30399;DHT22;17195;50.838;7.214;2023-07-29T02:51:05;18.90;99.90
30399;DHT22;17195;50.838;7.214;2023-07-29T02:53:31;19.00;99.90
30399;DHT22;17195;50.838;7.214;2023-07-29T02:55:56;19.00;99.90
30399;DHT22;17195;50.838;7.214;2023-07-29T02:58:22;19.00;99.90
30399;DHT22;17195;50.838;7.214;2023-07-29T03:00:47;19.00;99.90
30399;DHT22;17195;50.838;7.214;2023-07-29T03:03:14;19.00;99.90
30399;DHT22;17195;50.838;7.214;2023-07-29T03:05:39;19.00;99.90
30399;DHT22;17195;50.838;7.214;2023-07-29T03:08:05;19.00;99.90
30399;DHT22;17195;50.838;7.214;2023-07-29T03:10:31;18.90;99.90
30399;DHT22;17195;50.838;7.214;2023-07-29T03:12:56;18.90;99.90
30399;DHT22;17195;50.838;7.214;2023-07-29T03:15:26;19.00;99.90
30399;DHT22;17195;50.838;7.214;2023-07-29T03:17:52;19.00;99.90
30399;DHT22;17195;50.838;7.214;2023-07-29T03:20:18;19.00;99.90
30399;DHT22;17195;50.838;7.214;2023-07-29T03:22:45;19.00;99.90
30399;DHT22;17195;50.838;7.214;2023-07-29T03:25:10;19.00;99.90
30399;DHT22;17195;50.838;7.214;2023-07-29T03:27:36;18.90;99.90
30399;DHT22;17195;50.838;7.214;2023-07-29T03:30:05;19.00;99.90
30399;DHT22;17195;50.838;7.214;2023-07-29T03:32:31;19.00;99.90
30399;DHT22;17195;50.838;7.214;2023-07-29T03:34:57;19.00;99.90
30399;DHT22;17195;50.838;7.214;2023-07-29T03:37:22;19.00;99.90
30399;DHT22;17195;50.838;7.214;2023-07-29T03:39:48;19.00;99.90
30399;DHT22;17195;50.838;7.214;2023-07-29T03:42:13;19.00;99.90
30399;DHT22;17195;50.838;7.214;2023-07-29T03:44:39;18.90;99.90
30399;DHT22;17195;50.838;7.214;2023-07-29T03:47:05;18.90;99.90
30399;DHT22;17195;50.838;7.214;2023-07-29T03:49:31;18.90;99.90
30399;DHT22;17195;50.838;7.214;2023-07-29T03:51:57;18.80;99.90
30399;DHT22;17195;50.838;7.214;2023-07-29T03:54:22;18.80;99.90
30399;DHT22;17195;50.838;7.214;2023-07-29T03:56:48;18.70;99.90
30399;DHT22;17195;50.838;7.214;2023-07-29T03:59:13;18.70;99.90
30399;DHT22;17195;50.838;7.214;2023-07-29T04:01:39;18.70;99.90
30399;DHT22;17195;50.838;7.214;2023-07-29T04:04:05;18.60;99.90
30399;DHT22;17195;50.838;7.214;2023-07-29T04:06:30;18.60;99.90
30399;DHT22;17195;50.838;7.214;2023-07-29T04:08:56;18.50;99.90
30399;DHT22;17195;50.838;7.214;2023-07-29T04:11:23;18.50;99.90
30399;DHT22;17195;50.838;7.214;2023-07-29T04:13:48;18.50;99.90
30399;DHT22;17195;50.838;7.214;2023-07-29T04:16:14;18.40;99.90
30399;DHT22;17195;50.838;7.214;2023-07-29T04:18:40;18.40;99.90
30399;DHT22;17195;50.838;7.214;2023-07-29T04:21:05;18.40;99.90
30399;DHT22;17195;50.838;7.214;2023-07-29T04:23:31;18.40;99.90
30399;DHT22;17195;50.838;7.214;2023-07-29T04:25:56;18.50;99.90
30399;DHT22;17195;50.838;7.214;2023-07-29T04:28:22;18.50;99.90
30399;DHT22;17195;50.838;7.214;2023-07-29T04:30:47;18.50;99.90
30399;DHT22;17195;50.838;7.214;2023-07-29T04:33:13;18.40;99.90
30399;DHT22;17195;50.838;7.214;2023-07-29T04:35:38;18.30;99.90
30399;DHT22;17195;50.838;7.214;2023-07-29T04:38:04;18.30;99.90
30399;DHT22;17195;50.838;7.214;2023-07-29T04:40:33;18.30;99.90
30399;DHT22;17195;50.838;7.214;2023-07-29T04:43:00;18.30;99.90
30399;DHT22;17195;50.838;7.214;2023-07-29T04:45:28;18.30;99.90
30399;DHT22;17195;50.838;7.214;2023-07-29T04:47:54;18.30;99.90
30399;DHT22;17195;50.838;7.214;2023-07-29T04:50:20;18.20;99.90
30399;DHT22;17195;50.838;7.214;2023-07-29T04:52:46;18.30;99.90
30399;DHT22;17195;50.838;7.214;2023-07-29T04:55:11;18.30;99.90
30399;DHT22;17195;50.838;7.214;2023-07-29T04:57:37;18.30;99.90
30399;DHT22;17195;50.838;7.214;2023-07-29T05:00:03;18.30;99.90
30399;DHT22;17195;50.838;7.214;2023-07-29T05:02:29;18.30;99.90
30399;DHT22;17195;50.838;7.214;2023-07-29T05:04:54;18.30;99.90
30399;DHT22;17195;50.838;7.214;2023-07-29T05:07:20;18.30;99.90
30399;DHT22;17195;50.838;7.214;2023-07-29T05:09:45;18.30;99.90
30399;DHT22;17195;50.838;7.214;2023-07-29T05:12:11;18.30;99.90
30399;DHT22;17195;50.838;7.214;2023-07-29T05:14:36;18.30;99.90
30399;DHT22;17195;50.838;7.214;2023-07-29T05:17:02;18.40;99.90
30399;DHT22;17195;50.838;7.214;2023-07-29T05:19:27;18.40;99.90
30399;DHT22;17195;50.838;7.214;2023-07-29T05:21:53;18.50;99.90
30399;DHT22;17195;50.838;7.214;2023-07-29T05:24:18;18.50;99.90
30399;DHT22;17195;50.838;7.214;2023-07-29T05:26:44;18.60;99.90
30399;DHT22;17195;50.838;7.214;2023-07-29T05:29:09;18.60;99.90
30399;DHT22;17195;50.838;7.214;2023-07-29T05:31:35;18.70;99.90
30399;DHT22;17195;50.838;7.214;2023-07-29T05:34:00;18.80;99.90
30399;DHT22;17195;50.838;7.214;2023-07-29T05:36:26;18.80;99.90
30399;DHT22;17195;50.838;7.214;2023-07-29T05:38:52;18.90;99.90
30399;DHT22;17195;50.838;7.214;2023-07-29T05:41:18;18.90;99.90
30399;DHT22;17195;50.838;7.214;2023-07-29T05:43:43;18.90;99.90
30399;DHT22;17195;50.838;7.214;2023-07-29T05:46:09;19.00;99.90
30399;DHT22;17195;50.838;7.214;2023-07-29T05:48:35;19.00;99.90
30399;DHT22;17195;50.838;7.214;2023-07-29T05:51:01;19.00;99.90
30399;DHT22;17195;50.838;7.214;2023-07-29T05:53:26;19.10;99.90
30399;DHT22;17195;50.838;7.214;2023-07-29T05:55:52;19.10;99.90
30399;DHT22;17195;50.838;7.214;2023-07-29T05:58:17;19.00;99.90
30399;DHT22;17195;50.838;7.214;2023-07-29T06:00:43;19.10;99.90
30399;DHT22;17195;50.838;7.214;2023-07-29T06:03:08;19.10;99.90
30399;DHT22;17195;50.838;7.214;2023-07-29T06:05:34;19.10;99.90
30399;DHT22;17195;50.838;7.214;2023-07-29T06:07:59;19.20;99.90
30399;DHT22;17195;50.838;7.214;2023-07-29T06:10:25;19.30;99.90
30399;DHT22;17195;50.838;7.214;2023-07-29T06:12:50;19.40;99.90
30399;DHT22;17195;50.838;7.214;2023-07-29T06:15:16;19.50;99.90
30399;DHT22;17195;50.838;7.214;2023-07-29T06:17:41;19.50;99.90
30399;DHT22;17195;50.838;7.214;2023-07-29T06:20:07;19.60;99.90
30399;DHT22;17195;50.838;7.214;2023-07-29T06:22:33;19.60;99.90
30399;DHT22;17195;50.838;7.214;2023-07-29T06:24:58;19.70;99.90
30399;DHT22;17195;50.838;7.214;2023-07-29T06:27:25;19.70;99.90
30399;DHT22;17195;50.838;7.214;2023-07-29T06:29:51;19.70;99.90
30399;DHT22;17195;50.838;7.214;2023-07-29T06:32:16;19.80;99.90
30399;DHT22;17195;50.838;7.214;2023-07-29T06:34:42;19.90;99.90
30399;DHT22;17195;50.838;7.214;2023-07-29T06:37:07;19.90;99.90
30399;DHT22;17195;50.838;7.214;2023-07-29T06:39:33;19.90;99.90
30399;DHT22;17195;50.838;7.214;2023-07-29T06:41:59;19.90;99.90
30399;DHT22;17195;50.838;7.214;2023-07-29T06:44:24;19.90;99.90
30399;DHT22;17195;50.838;7.214;2023-07-29T06:46:50;20.00;99.90
30399;DHT22;17195;50.838;7.214;2023-07-29T06:49:15;19.90;99.90
30399;DHT22;17195;50.838;7.214;2023-07-29T06:51:41;19.80;99.90
30399;DHT22;17195;50.838;7.214;2023-07-29T06:54:06;19.70;99.90
30399;DHT22;17195;50.838;7.214;2023-07-29T06:56:32;19.70;99.90
30399;DHT22;17195;50.838;7.214;2023-07-29T06:58:58;19.70;99.90
30399;DHT22;17195;50.838;7.214;2023-07-29T07:01:23;19.70;99.90
30399;DHT22;17195;50.838;7.214;2023-07-29T07:03:49;19.70;99.90
30399;DHT22;17195;50.838;7.214;2023-07-29T07:06:14;19.70;99.90
30399;DHT22;17195;50.838;7.214;2023-07-29T07:08:40;19.80;99.90
30399;DHT22;17195;50.838;7.214;2023-07-29T07:11:07;19.90;99.90
30399;DHT22;17195;50.838;7.214;2023-07-29T07:13:33;20.10;99.90
30399;DHT22;17195;50.838;7.214;2023-07-29T07:15:59;20.30;99.90
30399;DHT22;17195;50.838;7.214;2023-07-29T07:18:24;20.60;99.90
30399;DHT22;17195;50.838;7.214;2023-07-29T07:20:50;20.70;99.90
30399;DHT22;17195;50.838;7.214;2023-07-29T07:23:16;20.90;99.90
30399;DHT22;17195;50.838;7.214;2023-07-29T07:25:42;21.00;99.90
30399;DHT22;17195;50.838;7.214;2023-07-29T07:28:08;21.00;99.90
30399;DHT22;17195;50.838;7.214;2023-07-29T07:30:34;20.90;99.90
30399;DHT22;17195;50.838;7.214;2023-07-29T07:33:00;20.80;99.90
30399;DHT22;17195;50.838;7.214;2023-07-29T07:35:25;20.70;99.90
30399;DHT22;17195;50.838;7.214;2023-07-29T07:37:51;20.70;99.90
30399;DHT22;17195;50.838;7.214;2023-07-29T07:40:16;20.60;99.90
30399;DHT22;17195;50.838;7.214;2023-07-29T07:42:42;20.70;99.90
30399;DHT22;17195;50.838;7.214;2023-07-29T07:45:08;20.70;99.90
30399;DHT22;17195;50.838;7.214;2023-07-29T07:47:33;20.70;99.90
30399;DHT22;17195;50.838;7.214;2023-07-29T07:49:59;20.60;99.90
30399;DHT22;17195;50.838;7.214;2023-07-29T07:52:24;20.60;99.90
30399;DHT22;17195;50.838;7.214;2023-07-29T07:54:53;20.70;99.90
30399;DHT22;17195;50.838;7.214;2023-07-29T07:57:21;20.70;99.90
30399;DHT22;17195;50.838;7.214;2023-07-29T07:59:47;20.80;99.90
30399;DHT22;17195;50.838;7.214;2023-07-29T08:02:12;21.00;99.90
30399;DHT22;17195;50.838;7.214;2023-07-29T08:04:38;21.10;99.90
30399;DHT22;17195;50.838;7.214;2023-07-29T08:07:04;21.20;99.90
30399;DHT22;17195;50.838;7.214;2023-07-29T08:09:29;21.40;99.90
30399;DHT22;17195;50.838;7.214;2023-07-29T08:11:55;21.60;99.90
30399;DHT22;17195;50.838;7.214;2023-07-29T08:14:21;21.70;99.90
30399;DHT22;17195;50.838;7.214;2023-07-29T08:16:46;21.80;99.90
30399;DHT22;17195;50.838;7.214;2023-07-29T08:19:12;21.90;99.90
30399;DHT22;17195;50.838;7.214;2023-07-29T08:21:37;22.00;99.90
30399;DHT22;17195;50.838;7.214;2023-07-29T08:24:03;21.90;99.90
30399;DHT22;17195;50.838;7.214;2023-07-29T08:26:29;21.90;99.90
30399;DHT22;17195;50.838;7.214;2023-07-29T08:28:54;21.70;99.90
30399;DHT22;17195;50.838;7.214;2023-07-29T08:31:20;21.70;99.90
30399;DHT22;17195;50.838;7.214;2023-07-29T08:33:46;21.80;99.90
30399;DHT22;17195;50.838;7.214;2023-07-29T08:36:11;22.00;99.90
30399;DHT22;17195;50.838;7.214;2023-07-29T08:38:37;22.00;99.90
30399;DHT22;17195;50.838;7.214;2023-07-29T08:41:16;22.00;99.90
30399;DHT22;17195;50.838;7.214;2023-07-29T08:43:56;22.10;99.90
30399;DHT22;17195;50.838;7.214;2023-07-29T08:46:25;22.30;99.90
30399;DHT22;17195;50.838;7.214;2023-07-29T08:48:51;22.40;99.90
30399;DHT22;17195;50.838;7.214;2023-07-29T08:51:17;22.60;99.90
30399;DHT22;17195;50.838;7.214;2023-07-29T08:53:45;22.50;99.90
30399;DHT22;17195;50.838;7.214;2023-07-29T08:56:11;22.60;99.90
30399;DHT22;17195;50.838;7.214;2023-07-29T08:58:37;22.70;99.90
30399;DHT22;17195;50.838;7.214;2023-07-29T09:01:05;22.60;99.90
30399;DHT22;17195;50.838;7.214;2023-07-29T09:03:31;22.30;99.90
30399;DHT22;17195;50.838;7.214;2023-07-29T09:05:58;22.10;99.90
30399;DHT22;17195;50.838;7.214;2023-07-29T09:08:27;22.00;99.90
30399;DHT22;17195;50.838;7.214;2023-07-29T09:10:54;21.80;99.90
30399;DHT22;17195;50.838;7.214;2023-07-29T09:13:21;21.70;99.90
30399;DHT22;17195;50.838;7.214;2023-07-29T09:15:46;21.60;99.90
30399;DHT22;17195;50.838;7.214;2023-07-29T09:18:16;21.50;99.90
30399;DHT22;17195;50.838;7.214;2023-07-29T09:20:41;21.50;99.90
30399;DHT22;17195;50.838;7.214;2023-07-29T09:23:09;21.50;99.90
30399;DHT22;17195;50.838;7.214;2023-07-29T09:25:38;21.50;99.90
30399;DHT22;17195;50.838;7.214;2023-07-29T09:28:12;21.40;99.90
30399;DHT22;17195;50.838;7.214;2023-07-29T09:30:42;21.50;99.90
30399;DHT22;17195;50.838;7.214;2023-07-29T09:33:09;21.70;99.90
30399;DHT22;17195;50.838;7.214;2023-07-29T09:35:36;21.90;99.90
30399;DHT22;17195;50.838;7.214;2023-07-29T09:38:03;22.10;99.90
30399;DHT22;17195;50.838;7.214;2023-07-29T09:40:39;22.20;99.90
30399;DHT22;17195;50.838;7.214;2023-07-29T09:43:07;22.30;99.90
30399;DHT22;17195;50.838;7.214;2023-07-29T09:45:36;22.40;99.90
30399;DHT22;17195;50.838;7.214;2023-07-29T09:48:03;22.50;99.90
30399;DHT22;17195;50.838;7.214;2023-07-29T09:50:30;22.70;99.90
30399;DHT22;17195;50.838;7.214;2023-07-29T09:52:56;22.70;99.90
30399;DHT22;17195;50.838;7.214;2023-07-29T09:55:25;22.80;99.90
30399;DHT22;17195;50.838;7.214;2023-07-29T09:58:01;22.80;99.90
30399;DHT22;17195;50.838;7.214;2023-07-29T10:00:29;22.70;99.90
30399;DHT22;17195;50.838;7.214;2023-07-29T10:02:56;22.40;99.90
30399;DHT22;17195;50.838;7.214;2023-07-29T10:05:22;22.20;99.90
30399;DHT22;17195;50.838;7.214;2023-07-29T10:07:49;22.10;99.90
30399;DHT22;17195;50.838;7.214;2023-07-29T10:10:15;22.00;99.90
30399;DHT22;17195;50.838;7.214;2023-07-29T10:12:41;22.00;99.90
30399;DHT22;17195;50.838;7.214;2023-07-29T10:15:08;22.00;99.90
30399;DHT22;17195;50.838;7.214;2023-07-29T10:17:36;22.00;99.90
30399;DHT22;17195;50.838;7.214;2023-07-29T10:20:04;22.10;99.90
30399;DHT22;17195;50.838;7.214;2023-07-29T10:22:37;22.20;99.90
30399;DHT22;17195;50.838;7.214;2023-07-29T10:25:04;22.20;99.90
30399;DHT22;17195;50.838;7.214;2023-07-29T10:27:44;22.20;99.90
30399;DHT22;17195;50.838;7.214;2023-07-29T10:30:12;22.20;99.90
30399;DHT22;17195;50.838;7.214;2023-07-29T10:32:41;22.40;99.90
30399;DHT22;17195;50.838;7.214;2023-07-29T10:35:08;22.50;99.90
30399;DHT22;17195;50.838;7.214;2023-07-29T10:37:34;22.40;99.90
30399;DHT22;17195;50.838;7.214;2023-07-29T10:40:00;22.20;99.90
30399;DHT22;17195;50.838;7.214;2023-07-29T10:42:25;22.10;99.90
30399;DHT22;17195;50.838;7.214;2023-07-29T10:44:52;22.20;99.90
30399;DHT22;17195;50.838;7.214;2023-07-29T10:47:19;22.30;99.90
30399;DHT22;17195;50.838;7.214;2023-07-29T10:49:55;22.40;99.90
30399;DHT22;17195;50.838;7.214;2023-07-29T10:54:57;22.40;99.90
30399;DHT22;17195;50.838;7.214;2023-07-29T10:57:36;22.40;99.90
30399;DHT22;17195;50.838;7.214;2023-07-29T11:00:03;22.20;99.90
30399;DHT22;17195;50.838;7.214;2023-07-29T11:02:35;22.00;99.90
30399;DHT22;17195;50.838;7.214;2023-07-29T11:05:17;21.80;99.90
30399;DHT22;17195;50.838;7.214;2023-07-29T11:07:47;21.60;99.90
30399;DHT22;17195;50.838;7.214;2023-07-29T11:10:14;21.60;99.90
30399;DHT22;17195;50.838;7.214;2023-07-29T11:12:49;21.60;99.90
30399;DHT22;17195;50.838;7.214;2023-07-29T11:15:24;21.50;99.90
30399;DHT22;17195;50.838;7.214;2023-07-29T11:17:51;21.50;99.90
30399;DHT22;17195;50.838;7.214;2023-07-29T11:20:23;21.60;99.90
30399;DHT22;17195;50.838;7.214;2023-07-29T11:22:49;21.70;99.90
30399;DHT22;17195;50.838;7.214;2023-07-29T11:25:17;21.90;99.90
30399;DHT22;17195;50.838;7.214;2023-07-29T11:27:44;22.10;99.90
30399;DHT22;17195;50.838;7.214;2023-07-29T11:30:11;22.30;99.90
30399;DHT22;17195;50.838;7.214;2023-07-29T11:32:38;22.40;99.90
30399;DHT22;17195;50.838;7.214;2023-07-29T11:35:05;22.70;99.90
30399;DHT22;17195;50.838;7.214;2023-07-29T11:37:36;22.90;99.90
30399;DHT22;17195;50.838;7.214;2023-07-29T11:40:02;23.10;99.90
30399;DHT22;17195;50.838;7.214;2023-07-29T11:42:28;23.10;99.90
30399;DHT22;17195;50.838;7.214;2023-07-29T11:44:57;23.10;99.90
30399;DHT22;17195;50.838;7.214;2023-07-29T11:47:23;22.80;99.90
30399;DHT22;17195;50.838;7.214;2023-07-29T11:49:49;22.80;99.90
30399;DHT22;17195;50.838;7.214;2023-07-29T11:52:15;22.90;99.90
30399;DHT22;17195;50.838;7.214;2023-07-29T11:54:44;23.00;99.90
30399;DHT22;17195;50.838;7.214;2023-07-29T11:57:10;23.10;99.90
30399;DHT22;17195;50.838;7.214;2023-07-29T11:59:37;23.20;99.90
30399;DHT22;17195;50.838;7.214;2023-07-29T12:02:10;23.20;99.90
30399;DHT22;17195;50.838;7.214;2023-07-29T12:04:37;23.20;99.90
30399;DHT22;17195;50.838;7.214;2023-07-29T12:07:03;23.20;99.90
30399;DHT22;17195;50.838;7.214;2023-07-29T12:09:29;23.50;99.90
30399;DHT22;17195;50.838;7.214;2023-07-29T12:11:56;23.70;99.90
30399;DHT22;17195;50.838;7.214;2023-07-29T12:14:21;24.00;99.90
30399;DHT22;17195;50.838;7.214;2023-07-29T12:16:48;24.20;99.90
30399;DHT22;17195;50.838;7.214;2023-07-29T12:19:15;24.10;99.90
30399;DHT22;17195;50.838;7.214;2023-07-29T12:21:44;24.10;99.90
30399;DHT22;17195;50.838;7.214;2023-07-29T12:24:12;24.00;99.90
30399;DHT22;17195;50.838;7.214;2023-07-29T12:26:37;23.90;99.90
30399;DHT22;17195;50.838;7.214;2023-07-29T12:29:14;23.90;99.90
30399;DHT22;17195;50.838;7.214;2023-07-29T12:31:39;24.00;99.90
30399;DHT22;17195;50.838;7.214;2023-07-29T12:34:05;24.00;99.90
30399;DHT22;17195;50.838;7.214;2023-07-29T12:36:47;24.20;99.90
30399;DHT22;17195;50.838;7.214;2023-07-29T12:39:18;24.00;99.90
30399;DHT22;17195;50.838;7.214;2023-07-29T12:41:44;23.70;99.90
30399;DHT22;17195;50.838;7.214;2023-07-29T12:44:09;23.80;99.90
30399;DHT22;17195;50.838;7.214;2023-07-29T12:46:35;24.10;99.90
30399;DHT22;17195;50.838;7.214;2023-07-29T12:49:01;24.60;99.90
30399;DHT22;17195;50.838;7.214;2023-07-29T12:51:26;24.90;99.90
30399;DHT22;17195;50.838;7.214;2023-07-29T12:53:53;25.40;99.90
30399;DHT22;17195;50.838;7.214;2023-07-29T12:56:18;25.60;99.90
30399;DHT22;17195;50.838;7.214;2023-07-29T12:58:44;26.00;99.90
30399;DHT22;17195;50.838;7.214;2023-07-29T13:01:09;26.10;99.90
30399;DHT22;17195;50.838;7.214;2023-07-29T13:03:38;25.90;99.90
30399;DHT22;17195;50.838;7.214;2023-07-29T13:06:03;25.80;99.90
30399;DHT22;17195;50.838;7.214;2023-07-29T13:08:30;25.70;99.90
30399;DHT22;17195;50.838;7.214;2023-07-29T13:10:56;25.50;99.90
30399;DHT22;17195;50.838;7.214;2023-07-29T13:13:21;25.20;99.90
30399;DHT22;17195;50.838;7.214;2023-07-29T13:15:47;25.00;99.90
30399;DHT22;17195;50.838;7.214;2023-07-29T13:18:12;24.70;99.90
30399;DHT22;17195;50.838;7.214;2023-07-29T13:20:38;24.40;99.90
30399;DHT22;17195;50.838;7.214;2023-07-29T13:23:03;24.30;99.90
30399;DHT22;17195;50.838;7.214;2023-07-29T13:25:29;24.20;99.90
30399;DHT22;17195;50.838;7.214;2023-07-29T13:27:54;24.10;99.90
30399;DHT22;17195;50.838;7.214;2023-07-29T13:30:20;23.90;99.90
30399;DHT22;17195;50.838;7.214;2023-07-29T13:32:46;23.80;99.90
30399;DHT22;17195;50.838;7.214;2023-07-29T13:35:11;23.50;99.90
30399;DHT22;17195;50.838;7.214;2023-07-29T13:37:37;23.30;99.90
30399;DHT22;17195;50.838;7.214;2023-07-29T13:40:02;23.20;99.90
30399;DHT22;17195;50.838;7.214;2023-07-29T13:42:28;23.20;99.90
30399;DHT22;17195;50.838;7.214;2023-07-29T13:44:54;23.00;99.90
30399;DHT22;17195;50.838;7.214;2023-07-29T13:47:19;22.90;99.90
30399;DHT22;17195;50.838;7.214;2023-07-29T13:49:45;22.80;99.90
30399;DHT22;17195;50.838;7.214;2023-07-29T13:52:10;22.70;99.90
30399;DHT22;17195;50.838;7.214;2023-07-29T13:54:36;22.60;99.90
30399;DHT22;17195;50.838;7.214;2023-07-29T13:57:01;22.50;99.90
30399;DHT22;17195;50.838;7.214;2023-07-29T13:59:27;22.50;99.90
30399;DHT22;17195;50.838;7.214;2023-07-29T14:01:52;22.40;99.90
30399;DHT22;17195;50.838;7.214;2023-07-29T14:04:18;22.40;99.90
30399;DHT22;17195;50.838;7.214;2023-07-29T14:06:44;22.20;99.90
30399;DHT22;17195;50.838;7.214;2023-07-29T14:09:10;22.30;99.90
30399;DHT22;17195;50.838;7.214;2023-07-29T14:11:36;22.30;99.90
30399;DHT22;17195;50.838;7.214;2023-07-29T14:14:01;22.20;99.90
30399;DHT22;17195;50.838;7.214;2023-07-29T14:16:27;22.20;99.90
30399;DHT22;17195;50.838;7.214;2023-07-29T14:18:52;22.30;99.90
30399;DHT22;17195;50.838;7.214;2023-07-29T14:21:18;22.50;99.90
30399;DHT22;17195;50.838;7.214;2023-07-29T14:23:43;22.60;99.90
30399;DHT22;17195;50.838;7.214;2023-07-29T14:26:09;22.70;99.90
30399;DHT22;17195;50.838;7.214;2023-07-29T14:28:36;22.80;99.90
30399;DHT22;17195;50.838;7.214;2023-07-29T14:31:02;22.90;99.90
30399;DHT22;17195;50.838;7.214;2023-07-29T14:33:27;22.70;99.90
30399;DHT22;17195;50.838;7.214;2023-07-29T14:35:53;22.70;99.90
30399;DHT22;17195;50.838;7.214;2023-07-29T14:38:19;22.70;99.90
30399;DHT22;17195;50.838;7.214;2023-07-29T14:40:47;22.60;99.90
30399;DHT22;17195;50.838;7.214;2023-07-29T14:43:12;22.60;99.90
30399;DHT22;17195;50.838;7.214;2023-07-29T14:45:38;22.70;99.90
30399;DHT22;17195;50.838;7.214;2023-07-29T14:48:04;22.70;99.90
30399;DHT22;17195;50.838;7.214;2023-07-29T14:50:30;22.70;99.90
30399;DHT22;17195;50.838;7.214;2023-07-29T14:52:55;22.80;99.90
30399;DHT22;17195;50.838;7.214;2023-07-29T14:55:21;22.80;99.90
30399;DHT22;17195;50.838;7.214;2023-07-29T14:57:46;23.00;99.90
30399;DHT22;17195;50.838;7.214;2023-07-29T15:00:12;23.20;99.90
30399;DHT22;17195;50.838;7.214;2023-07-29T15:02:38;23.40;99.90
30399;DHT22;17195;50.838;7.214;2023-07-29T15:05:05;23.50;99.90
30399;DHT22;17195;50.838;7.214;2023-07-29T15:07:30;23.70;99.90
30399;DHT22;17195;50.838;7.214;2023-07-29T15:09:56;23.70;99.90
30399;DHT22;17195;50.838;7.214;2023-07-29T15:12:22;23.90;99.90
30399;DHT22;17195;50.838;7.214;2023-07-29T15:14:47;24.10;99.90
30399;DHT22;17195;50.838;7.214;2023-07-29T15:17:13;24.30;99.90
30399;DHT22;17195;50.838;7.214;2023-07-29T15:19:39;24.20;99.90
30399;DHT22;17195;50.838;7.214;2023-07-29T15:22:04;24.30;99.90
30399;DHT22;17195;50.838;7.214;2023-07-29T15:24:30;24.50;99.90
30399;DHT22;17195;50.838;7.214;2023-07-29T15:26:56;24.50;99.90
30399;DHT22;17195;50.838;7.214;2023-07-29T15:29:21;24.40;99.90
30399;DHT22;17195;50.838;7.214;2023-07-29T15:31:47;24.30;99.90